To NAV CANADA Home Page Login to a new session Search on AWWS site Feedback and Comments Disclaimer Vers la page française équivalente Tips FAQ What's new on the site To the Forecasts and Observations / NOTAM section To "File a Flight Plan" website Publications and other links Update of the User's profile FIC Telephone Numbers My Weather Data Folder Route Weather Data Regional Weather Data Local Weather Data To the Forecasts and Observations / NOTAM section
Request Generated 12/04/2016 at 22:24:48 UTC . Weather information available at that time is displayed.

METAR/TAF

KITCHENER/WATERLOO/ON    (show WxCam)

SPECI CYKF 042211Z AUTO 10010KT 9SM SCT012 OVC032 01/M01 A3006 RMK
SLP194=
METAR CYKF 042200Z AUTO 10010KT 9SM BKN012 OVC034 01/M01 A3007 RMK
SLP195=
METAR CYKF 042100Z AUTO 09011KT 9SM OVC012 01/M01 A3009 RMK SLP201=
METAR CYKF 042000Z AUTO 10010KT 9SM OVC012 01/M01 A3011 RMK SLP210=

TAF CYKF 041941Z 0420/0505 12008KT P6SM BKN012 OVC040 TEMPO 0420/0424
SCT012 OVC040
FM050000 12010KT 6SM -SHSNRA BR OVC012 TEMPO 0500/0504 2SM -SN
OVC008 PROB30 0500/0504 11/2SM -SN OVC006
FM050400 12008KT 11/2SM -SN OVC006
RMK FCST BASED ON AUTO OBS. NXT FCST BY 050200Z=
Your time UTC time
Weather data provided by Environment Canada and NAV CANADA